createdAt,value
2018-06-10T00:02:31.371Z,13.00
2018-06-10T00:05:03.893Z,13.13
2018-06-10T00:07:36.305Z,13.03
2018-06-10T00:10:08.714Z,13.10
2018-06-10T00:12:41.153Z,12.13
2018-06-10T00:15:13.725Z,12.50
2018-06-10T00:17:46.184Z,12.80
2018-06-10T00:20:18.623Z,13.17
2018-06-10T00:22:51.008Z,13.43
2018-06-10T00:25:24.782Z,12.77
2018-06-10T00:27:57.210Z,12.77
2018-06-10T00:30:29.689Z,11.43
2018-06-10T00:33:02.251Z,13.20
2018-06-10T00:35:34.791Z,12.70
2018-06-10T00:38:07.167Z,12.07
2018-06-10T00:40:39.612Z,12.33
2018-06-10T00:43:12.024Z,12.70
2018-06-10T00:45:44.686Z,12.40
2018-06-10T00:48:17.052Z,12.70
2018-06-10T00:50:49.613Z,12.53
2018-06-10T00:53:22.030Z,13.60
2018-06-10T00:55:54.451Z,13.80
2018-06-10T00:58:26.857Z,13.00
2018-06-10T01:00:59.262Z,13.83
2018-06-10T01:03:31.707Z,13.20
2018-06-10T01:06:04.178Z,14.10
2018-06-10T01:08:36.592Z,14.17
2018-06-10T01:11:08.978Z,14.27
2018-06-10T01:13:41.331Z,15.53
2018-06-10T01:16:13.847Z,15.17
2018-06-10T01:18:46.232Z,16.10
2018-06-10T01:21:18.666Z,15.30
2018-06-10T01:23:51.660Z,16.73
2018-06-10T01:26:29.966Z,15.07
2018-06-10T01:29:02.352Z,16.10
2018-06-10T01:31:34.740Z,15.37
2018-06-10T01:34:07.848Z,16.17
2018-06-10T01:36:40.239Z,15.90
2018-06-10T01:39:12.957Z,16.27
2018-06-10T01:41:45.361Z,16.50
2018-06-10T01:44:17.817Z,15.77
2018-06-10T01:46:50.241Z,16.03
2018-06-10T01:49:22.891Z,16.70
2018-06-10T01:51:55.294Z,16.40
2018-06-10T01:54:27.764Z,16.77
2018-06-10T01:57:00.201Z,17.07
2018-06-10T01:59:32.749Z,17.07
2018-06-10T02:02:05.190Z,17.10
2018-06-10T02:04:37.592Z,16.07
2018-06-10T02:07:09.951Z,16.90
2018-06-10T02:09:42.422Z,16.30
2018-06-10T02:12:14.838Z,17.33
2018-06-10T02:14:47.357Z,16.73
2018-06-10T02:17:20.098Z,16.80
2018-06-10T02:19:52.512Z,16.03
2018-06-10T02:22:24.994Z,15.90
2018-06-10T02:24:57.406Z,16.50
2018-06-10T02:27:29.729Z,16.30
2018-06-10T02:30:02.156Z,15.90
2018-06-10T02:32:34.562Z,15.40
2018-06-10T02:35:06.928Z,15.57
2018-06-10T02:37:45.579Z,16.13
2018-06-10T02:40:17.990Z,15.90
2018-06-10T02:42:50.457Z,15.37
2018-06-10T02:45:22.804Z,15.47
2018-06-10T02:47:55.475Z,16.53
2018-06-10T02:50:27.887Z,16.00
2018-06-10T02:53:00.289Z,15.83
2018-06-10T02:55:32.674Z,16.03
2018-06-10T02:58:05.360Z,16.57
2018-06-10T03:00:37.730Z,16.17
2018-06-10T03:03:10.336Z,15.90
2018-06-10T03:05:43.093Z,16.87
2018-06-10T03:08:15.487Z,17.27
2018-06-10T03:10:47.954Z,16.93
2018-06-10T03:13:20.367Z,15.70
2018-06-10T03:15:52.760Z,17.50
2018-06-10T03:18:28.512Z,16.60
2018-06-10T03:21:00.893Z,15.97
2018-06-10T03:23:33.305Z,16.60
2018-06-10T03:26:05.701Z,16.63
2018-06-10T03:28:38.091Z,17.17
2018-06-10T03:31:10.491Z,17.27
2018-06-10T03:33:42.857Z,16.27
2018-06-10T03:36:15.273Z,17.00
2018-06-10T03:38:51.507Z,17.67
2018-06-10T03:41:23.984Z,17.17
2018-06-10T03:43:56.362Z,17.57
2018-06-10T03:46:29.111Z,16.03
2018-06-10T03:49:01.505Z,17.40
2018-06-10T03:51:33.923Z,16.97
2018-06-10T03:54:06.282Z,17.37
2018-06-10T03:56:38.719Z,16.97
2018-06-10T03:59:11.140Z,17.57
2018-06-10T04:01:43.589Z,17.67
2018-06-10T04:04:15.997Z,18.03
2018-06-10T04:06:48.419Z,18.23
2018-06-10T04:09:20.791Z,16.87
2018-06-10T04:11:53.226Z,17.70
2018-06-10T04:14:25.608Z,17.37
2018-06-10T04:16:57.986Z,17.57
2018-06-10T04:19:30.383Z,16.77
2018-06-10T04:22:02.830Z,17.00
2018-06-10T04:24:35.284Z,16.47
2018-06-10T04:27:07.854Z,17.30
2018-06-10T04:29:40.306Z,17.20
2018-06-10T04:32:12.688Z,17.33
2018-06-10T04:34:45.102Z,16.73
2018-06-10T04:37:17.549Z,18.60
2018-06-10T04:39:51.110Z,17.60
2018-06-10T04:42:23.732Z,17.40
2018-06-10T04:44:56.142Z,16.17
2018-06-10T04:47:28.587Z,16.10
2018-06-10T04:50:00.965Z,15.77
2018-06-10T04:52:33.493Z,17.10
2018-06-10T04:55:05.923Z,17.17
2018-06-10T04:57:38.582Z,16.93
2018-06-10T05:00:10.986Z,17.33
2018-06-10T05:02:44.349Z,15.77
2018-06-10T05:05:16.775Z,16.17
2018-06-10T05:07:49.197Z,17.70
2018-06-10T05:10:21.596Z,16.00
2018-06-10T05:12:54.018Z,15.63
2018-06-10T05:15:26.478Z,15.80
2018-06-10T05:17:58.864Z,15.47
2018-06-10T05:20:31.349Z,15.87
2018-06-10T05:23:03.787Z,16.07
2018-06-10T05:25:36.206Z,16.10
2018-06-10T05:28:08.644Z,15.50
2018-06-10T05:30:41.038Z,15.10
2018-06-10T05:33:13.477Z,16.67
2018-06-10T05:35:45.873Z,16.07
2018-06-10T05:38:18.287Z,15.70
2018-06-10T05:40:50.684Z,15.53
2018-06-10T05:43:23.137Z,15.10
2018-06-10T05:45:55.595Z,15.63
2018-06-10T05:48:27.974Z,15.60
2018-06-10T05:51:00.381Z,16.23
2018-06-10T05:53:32.772Z,15.07
2018-06-10T05:56:05.213Z,16.03
2018-06-10T05:58:37.908Z,16.47
2018-06-10T06:01:10.590Z,15.83
2018-06-10T06:03:43.014Z,15.80
2018-06-10T06:06:15.387Z,15.27
2018-06-10T06:08:47.764Z,15.00
2018-06-10T06:11:20.670Z,14.20
2018-06-10T06:13:53.120Z,14.13
2018-06-10T06:16:25.586Z,15.60
2018-06-10T06:18:57.987Z,15.20
2018-06-10T06:21:30.460Z,14.63
2018-06-10T06:24:04.210Z,15.13
2018-06-10T06:26:36.607Z,14.47
2018-06-10T06:29:09.287Z,13.07
2018-06-10T06:31:41.635Z,13.23
2018-06-10T06:34:14.057Z,13.07
2018-06-10T06:36:46.432Z,14.10
2018-06-10T06:39:19.160Z,13.23
2018-06-10T06:41:51.527Z,14.93
2018-06-10T06:44:24.284Z,13.40
2018-06-10T06:46:56.670Z,12.27
2018-06-10T06:49:29.362Z,12.03
2018-06-10T06:52:01.774Z,13.07
2018-06-10T06:54:34.418Z,13.00
2018-06-10T06:57:06.757Z,13.30
2018-06-10T06:59:40.056Z,13.47
2018-06-10T07:02:12.596Z,13.17
2018-06-10T07:04:45.327Z,12.77
2018-06-10T07:07:17.706Z,12.53
2018-06-10T07:09:50.176Z,12.97
2018-06-10T07:12:22.611Z,12.87
2018-06-10T07:14:55.071Z,11.83
2018-06-10T07:17:27.433Z,12.93
2018-06-10T07:19:59.933Z,10.93
2018-06-10T07:22:32.381Z,11.40
2018-06-10T07:25:04.819Z,11.87
2018-06-10T07:27:37.216Z,10.40
2018-06-10T07:30:09.666Z,12.07
2018-06-10T07:32:42.069Z,11.83
2018-06-10T07:35:14.523Z,10.70
2018-06-10T07:37:46.897Z,11.73
2018-06-10T07:40:19.287Z,11.83
2018-06-10T07:42:52.696Z,11.73
2018-06-10T07:45:25.148Z,10.37
2018-06-10T07:47:57.534Z,11.67
2018-06-10T07:50:29.990Z,11.90
2018-06-10T07:53:02.678Z,12.93
2018-06-10T07:55:35.045Z,12.80
2018-06-10T07:58:07.453Z,12.23
2018-06-10T08:00:39.794Z,12.87
2018-06-10T08:03:14.445Z,14.60
2018-06-10T08:05:46.909Z,13.93
2018-06-10T08:08:20.124Z,12.93
2018-06-10T08:10:52.485Z,14.67
2018-06-10T08:13:25.262Z,13.10
2018-06-10T08:15:57.790Z,13.07
2018-06-10T08:18:30.358Z,14.07
2018-06-10T08:21:02.835Z,13.83
2018-06-10T08:23:35.355Z,12.50
2018-06-10T08:26:07.759Z,12.93
2018-06-10T08:28:40.299Z,13.37
2018-06-10T08:31:12.730Z,13.03
2018-06-10T08:33:45.193Z,11.53
2018-06-10T08:36:17.551Z,12.17
2018-06-10T08:38:50.033Z,12.03
2018-06-10T08:41:22.519Z,10.80
2018-06-10T08:43:55.054Z,9.83
2018-06-10T08:46:27.470Z,10.83
2018-06-10T08:49:00.055Z,10.73
2018-06-10T08:51:32.453Z,10.30
2018-06-10T08:54:05.172Z,10.07
2018-06-10T08:56:37.683Z,10.30
2018-06-10T08:59:10.088Z,9.90
2018-06-10T09:01:42.528Z,9.40
2018-06-10T09:04:14.971Z,11.03
2018-06-10T09:06:47.398Z,9.93
2018-06-10T09:09:19.795Z,11.17
2018-06-10T09:11:52.447Z,11.97
2018-06-10T09:14:24.915Z,10.73
2018-06-10T09:16:57.516Z,10.90
2018-06-10T09:19:29.894Z,9.77
2018-06-10T09:22:02.379Z,10.20
2018-06-10T09:24:34.897Z,11.60
2018-06-10T09:27:07.400Z,13.70
2018-06-10T09:29:39.806Z,10.57
2018-06-10T09:32:12.203Z,12.03
2018-06-10T09:34:44.632Z,10.60
2018-06-10T09:37:17.053Z,10.37
2018-06-10T09:39:49.469Z,11.67
2018-06-10T09:42:21.870Z,10.80
2018-06-10T09:44:54.910Z,11.77
2018-06-10T09:47:27.362Z,10.20
2018-06-10T09:49:59.794Z,10.40
2018-06-10T09:52:32.237Z,10.07
2018-06-10T09:55:04.841Z,9.53
2018-06-10T09:57:37.281Z,9.57
2018-06-10T10:00:09.747Z,9.57
2018-06-10T10:02:43.957Z,8.90
2018-06-10T10:05:16.379Z,10.23
2018-06-10T10:07:49.222Z,9.90
2018-06-10T10:10:22.385Z,10.20
2018-06-10T10:12:54.761Z,11.00
2018-06-10T10:15:27.198Z,10.10
2018-06-10T10:17:59.601Z,10.73
2018-06-10T10:20:32.294Z,10.80
2018-06-10T10:23:04.672Z,10.80
2018-06-10T10:25:37.360Z,11.13
2018-06-10T10:28:09.802Z,10.67
2018-06-10T10:30:42.189Z,10.70
2018-06-10T10:33:14.825Z,11.33
2018-06-10T10:35:47.209Z,11.87
2018-06-10T10:38:19.948Z,11.23
2018-06-10T10:40:52.397Z,11.30
2018-06-10T10:43:24.835Z,11.13
2018-06-10T10:45:57.463Z,10.70
2018-06-10T10:48:29.938Z,12.13
2018-06-10T10:51:02.289Z,10.67
2018-06-10T10:53:34.706Z,11.17
2018-06-10T10:56:07.160Z,11.07
2018-06-10T10:58:39.571Z,11.60
2018-06-10T11:01:11.970Z,12.07
2018-06-10T11:03:44.545Z,12.13
2018-06-10T11:06:17.060Z,12.30
2018-06-10T11:08:49.445Z,13.47
2018-06-10T11:11:21.968Z,14.33
2018-06-10T11:13:54.418Z,12.30
2018-06-10T11:16:27.063Z,11.00
2018-06-10T11:18:59.521Z,11.23
2018-06-10T11:21:32.253Z,11.93
2018-06-10T11:24:04.675Z,13.17
2018-06-10T11:26:37.239Z,12.20
2018-06-10T11:29:09.654Z,12.30
2018-06-10T11:31:42.243Z,14.23
2018-06-10T11:34:14.578Z,13.23
2018-06-10T11:36:47.031Z,11.17
2018-06-10T11:39:19.446Z,12.63
2018-06-10T11:41:51.897Z,13.27
2018-06-10T11:44:24.271Z,12.50
2018-06-10T11:46:57.898Z,12.60
2018-06-10T11:49:30.276Z,11.67
2018-06-10T11:52:02.767Z,10.13
2018-06-10T11:54:35.276Z,8.70
2018-06-10T11:57:07.687Z,7.67
2018-06-10T11:59:40.123Z,8.00
2018-06-10T12:02:12.696Z,9.00
2018-06-10T12:04:45.234Z,7.83
2018-06-10T12:07:17.680Z,7.93
2018-06-10T12:09:50.068Z,7.63
2018-06-10T12:12:22.508Z,7.27
2018-06-10T12:14:54.940Z,7.07
2018-06-10T12:17:27.362Z,7.63
2018-06-10T12:20:00.475Z,7.03
2018-06-10T12:22:32.981Z,8.90
2018-06-10T12:25:05.778Z,7.40
2018-06-10T12:27:38.241Z,8.17
2018-06-10T12:30:10.682Z,6.90
2018-06-10T12:32:43.170Z,7.37
2018-06-10T12:35:15.598Z,7.17
2018-06-10T12:37:48.008Z,7.33
2018-06-10T12:40:20.386Z,7.50
2018-06-10T12:42:52.826Z,8.73
2018-06-10T12:45:25.293Z,13.13
2018-06-10T12:47:57.837Z,7.73
2018-06-10T12:50:30.470Z,11.00
2018-06-10T12:53:03.044Z,8.27
2018-06-10T12:55:35.493Z,9.60
2018-06-10T12:58:07.941Z,9.77
2018-06-10T13:00:40.348Z,10.07
2018-06-10T13:03:12.835Z,9.50
2018-06-10T13:05:45.237Z,9.73
2018-06-10T13:08:17.743Z,10.33
2018-06-10T13:10:50.210Z,9.90
2018-06-10T13:13:22.662Z,17.27
2018-06-10T13:15:55.076Z,26.07
2018-06-10T13:18:27.569Z,14.33
2018-06-10T13:21:00.077Z,15.97
2018-06-10T13:23:32.498Z,10.13
2018-06-10T13:26:04.902Z,10.07
2018-06-10T13:28:37.380Z,9.97
2018-06-10T13:31:09.767Z,10.07
2018-06-10T13:33:42.211Z,9.43
2018-06-10T13:36:14.678Z,10.37
2018-06-10T13:38:47.161Z,10.23
2018-06-10T13:41:19.577Z,8.80
2018-06-10T13:43:52.257Z,9.13
2018-06-10T13:46:24.727Z,8.80
2018-06-10T13:48:57.269Z,9.50
2018-06-10T13:51:29.641Z,9.17
2018-06-10T13:54:02.040Z,10.90
2018-06-10T13:56:34.457Z,9.17
2018-06-10T13:59:06.866Z,10.07
2018-06-10T14:01:39.282Z,9.87
2018-06-10T14:04:11.673Z,9.40
2018-06-10T14:06:44.068Z,8.63
2018-06-10T14:09:16.501Z,10.27
2018-06-10T14:11:49.228Z,9.17
2018-06-10T14:14:21.629Z,8.63
2018-06-10T14:16:54.364Z,9.13
2018-06-10T14:19:26.793Z,9.20
2018-06-10T14:21:59.201Z,9.73
2018-06-10T14:24:31.713Z,9.20
2018-06-10T14:27:04.168Z,9.63
2018-06-10T14:29:37.599Z,9.20
2018-06-10T14:32:10.322Z,9.33
2018-06-10T14:34:42.700Z,8.83
2018-06-10T14:37:15.133Z,8.40
2018-06-10T14:39:47.834Z,8.37
2018-06-10T14:42:20.198Z,8.60
2018-06-10T14:44:52.644Z,8.93
2018-06-10T14:47:25.101Z,11.53
2018-06-10T14:49:58.561Z,10.40
2018-06-10T14:52:30.935Z,10.30
2018-06-10T14:55:03.490Z,10.50
2018-06-10T14:57:35.771Z,11.73
2018-06-10T15:00:08.166Z,12.10
2018-06-10T15:02:40.508Z,14.53
2018-06-10T15:05:13.018Z,12.83
2018-06-10T15:07:45.611Z,13.20
2018-06-10T15:10:18.071Z,11.80
2018-06-10T15:12:50.497Z,10.80
2018-06-10T15:15:24.111Z,12.17
2018-06-10T15:17:56.722Z,12.93
2018-06-10T15:20:29.143Z,12.50
2018-06-10T15:23:01.520Z,11.43
2018-06-10T15:25:34.032Z,13.07
2018-06-10T15:28:06.504Z,13.90
2018-06-10T15:30:39.302Z,13.17
2018-06-10T15:33:11.766Z,13.83
2018-06-10T15:35:44.274Z,14.03
2018-06-10T15:38:16.601Z,15.00
2018-06-10T15:40:49.022Z,14.43
2018-06-10T15:43:21.489Z,15.70
2018-06-10T15:45:53.948Z,16.00
2018-06-10T15:48:26.408Z,16.47
2018-06-10T15:50:58.963Z,48.33
2018-06-10T15:53:31.357Z,22.33
2018-06-10T15:56:04.176Z,16.77
2018-06-10T15:58:36.542Z,15.70
2018-06-10T16:01:08.926Z,16.97
2018-06-10T16:03:41.314Z,15.23
2018-06-10T16:06:13.731Z,16.20
2018-06-10T16:08:46.102Z,15.97
2018-06-10T16:11:18.623Z,15.57
2018-06-10T16:13:51.107Z,15.17
2018-06-10T16:16:23.542Z,16.30
2018-06-10T16:18:56.315Z,16.10
2018-06-10T16:21:28.874Z,17.40
2018-06-10T16:24:01.288Z,16.40
2018-06-10T16:26:33.997Z,17.53
2018-06-10T16:29:06.403Z,17.17
2018-06-10T16:31:39.103Z,16.47
2018-06-10T16:34:11.449Z,18.17
2018-06-10T16:36:43.978Z,17.40
2018-06-10T16:39:16.434Z,17.67
2018-06-10T16:41:48.955Z,16.93
2018-06-10T16:44:21.361Z,16.43
2018-06-10T16:46:53.835Z,14.67
2018-06-10T16:49:26.265Z,15.77
2018-06-10T16:51:58.767Z,14.77
2018-06-10T16:54:31.332Z,14.60
2018-06-10T16:57:03.854Z,16.03
2018-06-10T16:59:36.283Z,16.70
2018-06-10T17:02:09.146Z,15.57
2018-06-10T17:04:41.578Z,16.33
2018-06-10T17:07:14.271Z,15.20
2018-06-10T17:09:46.765Z,16.77
2018-06-10T17:12:19.422Z,14.77
2018-06-10T17:14:51.811Z,15.73
2018-06-10T17:17:24.363Z,14.77
2018-06-10T17:19:56.790Z,16.47
2018-06-10T17:22:29.187Z,17.47
2018-06-10T17:25:01.623Z,17.27
2018-06-10T17:27:34.055Z,17.40
2018-06-10T17:30:06.509Z,17.47
2018-06-10T17:32:41.214Z,17.87
2018-06-10T17:35:13.686Z,17.13
2018-06-10T17:37:46.116Z,15.80
2018-06-10T17:40:18.530Z,14.90
2018-06-10T17:42:50.916Z,15.33
2018-06-10T17:45:23.290Z,15.63
2018-06-10T17:47:56.418Z,15.50
2018-06-10T17:50:28.810Z,16.03
2018-06-10T17:53:01.263Z,16.23
2018-06-10T17:55:33.758Z,16.10
2018-06-10T17:58:06.183Z,15.80
2018-06-10T18:00:38.582Z,15.70
2018-06-10T18:03:11.059Z,17.50
2018-06-10T18:05:43.529Z,16.17
2018-06-10T18:08:15.917Z,16.43
2018-06-10T18:10:49.182Z,16.10
2018-06-10T18:13:21.616Z,15.77
2018-06-10T18:15:54.358Z,16.20
2018-06-10T18:18:26.796Z,15.23
2018-06-10T18:20:59.200Z,15.40
2018-06-10T18:23:31.645Z,16.60
2018-06-10T18:26:04.092Z,16.73
2018-06-10T18:28:36.525Z,15.90
2018-06-10T18:31:09.043Z,16.13
2018-06-10T18:33:41.520Z,16.63
2018-06-10T18:36:13.892Z,15.87
2018-06-10T18:38:46.301Z,16.13
2018-06-10T18:41:18.706Z,16.33
2018-06-10T18:43:51.151Z,16.20
2018-06-10T18:46:23.667Z,15.97
2018-06-10T18:48:56.175Z,16.13
2018-06-10T18:51:28.900Z,16.43
2018-06-10T18:54:01.658Z,17.63
2018-06-10T18:56:34.182Z,16.53
2018-06-10T18:59:06.556Z,16.17
2018-06-10T19:01:39.196Z,17.47
2018-06-10T19:04:11.619Z,17.50
2018-06-10T19:06:44.041Z,16.73
2018-06-10T19:09:16.464Z,18.57
2018-06-10T19:11:48.980Z,18.30
2018-06-10T19:14:21.426Z,17.10
2018-06-10T19:16:53.849Z,15.63
2018-06-10T19:19:26.537Z,14.47
2018-06-10T19:21:59.244Z,15.57
2018-06-10T19:24:31.648Z,15.33
2018-06-10T19:27:04.656Z,17.47
2018-06-10T19:29:37.393Z,14.17
2018-06-10T19:32:09.806Z,15.03
2018-06-10T19:34:44.296Z,14.73
2018-06-10T19:37:16.787Z,14.63
2018-06-10T19:39:49.209Z,14.40
2018-06-10T19:42:21.590Z,20.53
2018-06-10T19:44:54.585Z,17.30
2018-06-10T19:47:27.216Z,14.80
2018-06-10T19:49:59.793Z,15.23
2018-06-10T19:52:32.261Z,14.00
2018-06-10T19:55:04.854Z,13.67
2018-06-10T19:57:37.305Z,13.37
2018-06-10T20:00:09.879Z,13.27
2018-06-10T20:02:42.244Z,12.97
2018-06-10T20:05:14.881Z,14.00
2018-06-10T20:07:47.342Z,13.73
2018-06-10T20:10:19.871Z,12.10
2018-06-10T20:12:52.305Z,13.17
2018-06-10T20:15:24.828Z,13.50
2018-06-10T20:17:57.362Z,12.63
2018-06-10T20:20:30.221Z,13.07
2018-06-10T20:23:02.621Z,13.70
2018-06-10T20:25:35.090Z,13.67
2018-06-10T20:28:07.497Z,14.33
2018-06-10T20:30:40.263Z,14.50
2018-06-10T20:33:12.615Z,13.87
2018-06-10T20:35:45.374Z,14.33
2018-06-10T20:38:17.869Z,13.83
2018-06-10T20:40:50.319Z,13.67
2018-06-10T20:43:22.765Z,13.70
2018-06-10T20:45:56.265Z,13.77
2018-06-10T20:48:28.747Z,13.03
2018-06-10T20:51:01.151Z,12.83
2018-06-10T20:53:33.618Z,13.00
2018-06-10T20:56:06.195Z,12.80
2018-06-10T20:58:38.612Z,13.30
2018-06-10T21:01:11.047Z,13.37
2018-06-10T21:03:43.539Z,13.93
2018-06-10T21:06:16.159Z,13.67
2018-06-10T21:08:48.561Z,13.20
2018-06-10T21:11:20.958Z,13.43
2018-06-10T21:13:54.048Z,14.07
2018-06-10T21:16:26.510Z,13.37
2018-06-10T21:18:58.952Z,14.30
2018-06-10T21:21:31.387Z,13.90
2018-06-10T21:24:03.833Z,13.83
2018-06-10T21:26:36.270Z,13.17
2018-06-10T21:29:08.684Z,13.27
2018-06-10T21:31:41.433Z,13.10
2018-06-10T21:34:13.959Z,13.33
2018-06-10T21:36:46.477Z,13.37
2018-06-10T21:39:18.930Z,13.40
2018-06-10T21:41:51.411Z,11.33
2018-06-10T21:44:23.931Z,12.17
2018-06-10T21:46:56.370Z,12.37
2018-06-10T21:49:29.030Z,12.20
2018-06-10T21:52:01.460Z,12.43
2018-06-10T21:54:34.640Z,11.47
2018-06-10T21:57:07.295Z,11.67
2018-06-10T21:59:39.734Z,11.20
2018-06-10T22:02:12.224Z,10.37
2018-06-10T22:04:44.647Z,11.10
2018-06-10T22:07:17.096Z,10.57
2018-06-10T22:09:49.584Z,11.37
2018-06-10T22:12:22.015Z,10.57
2018-06-10T22:14:54.939Z,10.33
2018-06-10T22:17:27.457Z,10.03
2018-06-10T22:19:59.854Z,11.30
2018-06-10T22:22:32.294Z,10.60
2018-06-10T22:25:04.918Z,10.37
2018-06-10T22:27:37.599Z,10.13
2018-06-10T22:30:10.023Z,10.43
2018-06-10T22:32:42.526Z,10.00
2018-06-10T22:35:14.994Z,10.27
2018-06-10T22:37:47.440Z,10.07
2018-06-10T22:40:19.862Z,9.83
2018-06-10T22:42:52.274Z,10.00
2018-06-10T22:45:25.295Z,10.87
2018-06-10T22:47:57.973Z,10.80
2018-06-10T22:50:30.429Z,10.93
2018-06-10T22:55:26.355Z,11.57
2018-06-10T22:57:59.150Z,11.77
2018-06-10T23:00:31.615Z,11.80
2018-06-10T23:03:04.086Z,12.20
2018-06-10T23:05:36.481Z,11.30
2018-06-10T23:08:08.919Z,11.63
2018-06-10T23:10:41.423Z,11.80
2018-06-10T23:13:13.821Z,11.83
2018-06-10T23:15:46.226Z,12.23
2018-06-10T23:18:18.770Z,11.67
2018-06-10T23:20:51.177Z,12.43
2018-06-10T23:23:23.593Z,12.87
2018-06-10T23:25:56.219Z,12.13
2018-06-10T23:28:29.047Z,12.50
2018-06-10T23:31:01.417Z,12.40
2018-06-10T23:33:33.902Z,12.43
2018-06-10T23:36:06.318Z,12.77
2018-06-10T23:38:39.497Z,13.00
2018-06-10T23:41:11.880Z,12.73
2018-06-10T23:43:44.293Z,12.57
2018-06-10T23:46:16.681Z,12.77
2018-06-10T23:48:49.092Z,12.97
2018-06-10T23:51:21.530Z,12.30
2018-06-10T23:53:53.979Z,13.43
2018-06-10T23:56:26.405Z,13.73
2018-06-10T23:58:59.346Z,13.20
